Time;durP1;ratioP1;P1;durP2;ratioP2;P2;SDS_P1;SDS_P2;PMS_P1;PMS_P2;Temp;Humidity;BMP_temperature;BMP_pressure;BME280_temperature;BME280_humidity;BME280_pressure;Samples;Min_cycle;Max_cycle;Signal;HPM_P1;HPM_P2
2021/06/05 00:01:23;;;;;;;12.40;10.13;;;19.70;92.10;;;;;;5076189;28;20508;-81
2021/06/05 00:03:50;;;;;;;13.37;9.87;;;19.70;92.10;;;;;;5076611;28;20176;-78
2021/06/05 00:06:17;;;;;;;20.43;14.50;;;19.60;92.30;;;;;;5074534;28;20491;-79
2021/06/05 00:08:45;;;;;;;24.33;16.10;;;19.60;92.20;;;;;;5074706;28;20466;-79
2021/06/05 00:11:13;;;;;;;25.80;18.73;;;19.60;92.40;;;;;;5075541;28;20897;-77
2021/06/05 00:13:45;;;;;;;27.00;18.53;;;19.60;92.80;;;;;;5076516;28;20776;-77
2021/06/05 00:16:18;;;;;;;29.47;21.20;;;19.60;92.90;;;;;;5080069;28;20752;-77
2021/06/05 00:18:45;;;;;;;32.97;22.60;;;19.60;93.00;;;;;;5078969;28;20923;-79
2021/06/05 00:21:11;;;;;;;34.20;22.20;;;19.60;93.00;;;;;;5100832;28;20416;-77
2021/06/05 00:23:38;;;;;;;32.17;22.30;;;19.60;93.10;;;;;;5081513;28;20504;-78
2021/06/05 00:26:06;;;;;;;38.00;24.00;;;19.60;93.00;;;;;;5081584;28;20435;-79
2021/06/05 00:28:32;;;;;;;33.83;21.87;;;19.50;92.90;;;;;;5064808;28;20454;-81
2021/06/05 00:30:58;;;;;;;37.60;23.50;;;19.50;92.80;;;;;;5066583;28;20435;-78
2021/06/05 00:33:27;;;;;;;35.53;22.43;;;19.40;92.90;;;;;;5057390;28;20422;-79
2021/06/05 00:35:54;;;;;;;39.60;24.23;;;19.40;93.20;;;;;;5076202;28;20431;-79
2021/06/05 00:38:21;;;;;;;37.07;24.70;;;19.40;93.30;;;;;;5078796;28;20424;-80
2021/06/05 00:40:52;;;;;;;40.30;23.97;;;19.40;93.20;;;;;;5081410;28;20758;-80
2021/06/05 00:43:22;;;;;;;38.93;23.63;;;19.40;93.40;;;;;;5059586;28;20490;-80
2021/06/05 00:45:48;;;;;;;36.50;22.27;;;19.40;93.30;;;;;;5075888;28;20821;-80
2021/06/05 00:48:18;;;;;;;37.63;22.40;;;19.40;93.40;;;;;;5077110;28;20463;-79
2021/06/05 00:50:52;;;;;;;40.20;24.53;;;19.30;93.60;;;;;;5094454;28;20476;-78
2021/06/05 00:53:22;;;;;;;35.70;21.57;;;19.30;93.30;;;;;;5093652;28;20430;-79
2021/06/05 00:55:51;;;;;;;34.00;21.23;;;19.30;93.20;;;;;;5076774;28;20427;-81
2021/06/05 00:58:18;;;;;;;36.90;21.93;;;19.20;93.20;;;;;;5075135;28;21047;-79
2021/06/05 01:00:55;;;;;;;31.47;21.60;;;19.10;93.30;;;;;;5076777;28;20411;-80
2021/06/05 01:03:23;;;;;;;34.87;22.57;;;19.10;93.30;;;;;;5075659;28;20420;-80
2021/06/05 01:05:59;;;;;;;31.10;22.60;;;19.00;93.40;;;;;;5058405;28;20418;-80
2021/06/05 01:09:00;;;;;;;35.10;23.37;;;19.00;93.60;;;;;;5081212;28;20966;-81
2021/06/05 01:12:10;;;;;;;34.90;23.77;;;19.00;93.60;;;;;;5096548;28;20410;-80
2021/06/05 01:14:51;;;;;;;31.10;21.50;;;18.90;93.70;;;;;;5094467;28;20446;-78
2021/06/05 01:17:37;;;;;;;35.50;22.93;;;18.80;94.00;;;;;;5078725;28;20402;-81
2021/06/05 01:20:13;;;;;;;38.97;24.70;;;18.80;94.10;;;;;;5062783;28;20487;-78
2021/06/05 01:23:12;;;;;;;36.60;22.53;;;18.80;94.20;;;;;;5075851;28;20440;-79
2021/06/05 01:25:53;;;;;;;39.00;23.07;;;18.80;94.00;;;;;;5082435;28;20443;-79
2021/06/05 01:28:29;;;;;;;41.07;25.33;;;18.80;94.20;;;;;;5098220;28;20449;-78
2021/06/05 01:30:58;;;;;;;36.27;24.10;;;18.90;94.20;;;;;;5101308;28;20429;-79
2021/06/05 01:33:29;;;;;;;37.43;23.33;;;18.90;94.10;;;;;;5095144;28;20414;-81
2021/06/05 01:36:01;;;;;;;35.23;22.60;;;18.90;94.10;;;;;;5093774;28;20434;-78
2021/06/05 01:38:32;;;;;;;38.17;23.30;;;18.90;94.00;;;;;;5093647;28;20423;-78
2021/06/05 01:41:00;;;;;;;40.00;25.20;;;18.90;93.90;;;;;;5095930;28;20425;-80
2021/06/05 01:43:29;;;;;;;38.33;23.20;;;18.90;93.80;;;;;;5099933;28;20417;-80
2021/06/05 01:45:59;;;;;;;37.83;24.70;;;18.90;93.80;;;;;;5094096;28;20467;-82
2021/06/05 01:48:26;;;;;;;37.03;24.00;;;18.80;93.90;;;;;;5076907;28;20462;-79
2021/06/05 01:50:55;;;;;;;36.13;23.50;;;18.70;94.40;;;;;;5079142;28;20422;-80
2021/06/05 01:53:31;;;;;;;39.47;24.60;;;18.70;94.00;;;;;;5080375;28;20407;-78
2021/06/05 01:56:07;;;;;;;38.40;24.60;;;18.70;94.20;;;;;;5079672;28;20781;-80
2021/06/05 01:58:37;;;;;;;42.30;26.10;;;18.60;94.20;;;;;;5079869;28;20406;-79
2021/06/05 02:01:21;;;;;;;45.17;25.13;;;18.60;94.30;;;;;;5064077;28;20454;-80
2021/06/05 02:03:50;;;;;;;39.00;25.27;;;18.60;94.40;;;;;;5077163;28;20434;-79
2021/06/05 02:06:47;;;;;;;39.67;26.37;;;18.60;94.50;;;;;;5075728;28;20928;-76
2021/06/05 02:09:16;;;;;;;42.57;24.80;;;18.60;94.60;;;;;;5092027;28;20465;-77
2021/06/05 02:11:47;;;;;;;48.67;27.83;;;18.60;94.40;;;;;;5097585;28;20539;-78
2021/06/05 02:14:34;;;;;;;42.40;26.23;;;18.50;94.40;;;;;;5095487;28;20426;-79
2021/06/05 02:17:06;;;;;;;44.67;27.17;;;18.50;94.50;;;;;;5097155;28;20799;-77
2021/06/05 02:19:42;;;;;;;43.83;26.43;;;18.50;94.40;;;;;;5094718;28;20422;-78
2021/06/05 02:22:29;;;;;;;39.93;24.93;;;18.50;94.40;;;;;;5075880;28;20529;-78
2021/06/05 02:25:00;;;;;;;34.40;25.17;;;18.60;94.40;;;;;;5074046;28;21041;-76
2021/06/05 02:27:36;;;;;;;40.90;24.30;;;18.60;94.20;;;;;;5075012;28;20396;-75
2021/06/05 02:30:07;;;;;;;39.87;23.47;;;18.60;94.00;;;;;;5071622;28;20511;-76
2021/06/05 02:32:36;;;;;;;32.93;21.83;;;18.60;93.90;;;;;;5074378;28;20420;-75
2021/06/05 02:35:08;;;;;;;30.70;21.77;;;18.60;94.00;;;;;;5073528;28;20519;-76
2021/06/05 02:38:04;;;;;;;30.60;21.13;;;18.50;93.90;;;;;;5065796;28;20419;-77
2021/06/05 02:40:38;;;;;;;30.57;20.17;;;18.50;93.90;;;;;;5074894;28;20411;-76
2021/06/05 02:43:11;;;;;;;27.50;19.23;;;18.50;93.90;;;;;;5092262;28;20417;-78
2021/06/05 02:46:07;;;;;;;32.43;20.53;;;18.50;93.90;;;;;;5095833;28;20445;-76
2021/06/05 02:48:48;;;;;;;33.67;19.90;;;18.50;93.80;;;;;;5102341;28;20557;-76
2021/06/05 02:51:21;;;;;;;31.03;21.50;;;18.50;93.60;;;;;;5093916;28;20406;-77
2021/06/05 02:53:49;;;;;;;33.90;23.77;;;18.50;93.50;;;;;;5092973;28;20433;-78
2021/06/05 02:56:15;;;;;;;31.70;21.27;;;18.60;93.50;;;;;;5093033;28;20491;-76
2021/06/05 02:58:41;;;;;;;32.10;21.67;;;18.60;93.30;;;;;;5093804;28;20493;-75
2021/06/05 03:01:11;;;;;;;36.07;22.47;;;18.60;93.30;;;;;;5092473;28;20965;-76
2021/06/05 03:03:39;;;;;;;30.07;22.00;;;18.60;93.30;;;;;;5076580;28;20477;-76
2021/06/05 03:06:07;;;;;;;36.60;21.50;;;18.70;93.10;;;;;;5093638;28;20942;-77
2021/06/05 03:08:35;;;;;;;32.67;20.70;;;18.70;93.00;;;;;;5093268;28;20489;-76
2021/06/05 03:11:04;;;;;;;29.20;20.50;;;18.70;92.80;;;;;;5094561;28;20942;-78
2021/06/05 03:13:33;;;;;;;28.77;18.63;;;18.70;92.80;;;;;;5091648;28;20419;-77
2021/06/05 03:16:00;;;;;;;28.10;20.70;;;18.70;92.70;;;;;;5093332;28;20430;-79
2021/06/05 03:18:33;;;;;;;35.93;19.70;;;18.80;92.70;;;;;;5077194;28;20422;-78
2021/06/05 03:21:08;;;;;;;28.97;20.57;;;18.80;92.60;;;;;;5078630;28;20403;-78
2021/06/05 03:23:34;;;;;;;33.57;21.27;;;18.80;92.60;;;;;;5094515;28;20414;-75
2021/06/05 03:26:05;;;;;;;33.20;21.73;;;18.80;92.60;;;;;;5072929;28;20442;-78
2021/06/05 03:28:35;;;;;;;31.53;20.73;;;18.70;92.40;;;;;;5058339;28;21006;-77
2021/06/05 03:31:04;;;;;;;30.70;20.10;;;18.70;92.50;;;;;;5075026;28;20495;-76
2021/06/05 03:33:32;;;;;;;32.07;21.77;;;18.70;92.50;;;;;;5061494;28;20489;-76
2021/06/05 03:36:03;;;;;;;31.80;20.43;;;18.60;92.50;;;;;;5081403;28;20439;-78
2021/06/05 03:38:29;;;;;;;36.97;22.67;;;18.60;92.70;;;;;;5080456;28;20432;-78
2021/06/05 03:40:57;;;;;;;30.93;22.40;;;18.60;92.70;;;;;;5084351;28;20498;-77
2021/06/05 03:43:23;;;;;;;29.13;20.80;;;18.60;92.70;;;;;;5079696;28;20422;-76
2021/06/05 03:45:50;;;;;;;29.20;20.70;;;18.60;92.90;;;;;;5094150;28;20426;-77
2021/06/05 03:48:17;;;;;;;30.37;19.77;;;18.60;92.60;;;;;;5094037;28;20882;-78
2021/06/05 03:50:46;;;;;;;35.17;21.80;;;18.50;92.60;;;;;;5092818;28;20433;-77
2021/06/05 03:53:17;;;;;;;32.00;22.50;;;18.60;92.70;;;;;;5093610;28;20773;-77
2021/06/05 03:55:43;;;;;;;33.90;22.57;;;18.60;92.60;;;;;;5093126;28;20473;-76
2021/06/05 03:58:10;;;;;;;35.07;23.17;;;18.60;92.50;;;;;;5094819;28;20411;-79
2021/06/05 04:00:39;;;;;;;35.30;23.33;;;18.50;92.40;;;;;;5092353;28;20160;-77
2021/06/05 04:03:05;;;;;;;38.57;24.83;;;18.50;92.50;;;;;;5072501;28;20422;-78
2021/06/05 04:05:32;;;;;;;38.60;22.53;;;18.50;92.30;;;;;;5085831;28;20441;-78
2021/06/05 04:07:58;;;;;;;35.40;23.43;;;18.50;92.40;;;;;;5092491;28;20454;-76
2021/06/05 04:10:25;;;;;;;35.47;21.80;;;18.50;92.40;;;;;;5093684;28;20393;-78
2021/06/05 04:12:52;;;;;;;38.20;22.33;;;18.50;92.40;;;;;;5091026;28;20418;-77
2021/06/05 04:15:20;;;;;;;35.93;20.67;;;18.50;92.30;;;;;;5092889;28;20434;-77
2021/06/05 04:17:46;;;;;;;38.47;23.80;;;18.50;92.30;;;;;;5091819;28;20498;-77
2021/06/05 04:20:16;;;;;;;36.53;22.00;;;18.50;92.30;;;;;;5093785;28;20430;-76
2021/06/05 04:22:42;;;;;;;33.80;19.83;;;18.50;92.40;;;;;;5091690;28;20195;-78
2021/06/05 04:25:09;;;;;;;32.43;22.20;;;18.50;92.30;;;;;;5092894;28;20450;-78
2021/06/05 04:27:35;;;;;;;30.73;19.70;;;18.50;92.30;;;;;;5086837;28;20181;-76
2021/06/05 04:30:00;;;;;;;31.33;19.60;;;18.40;92.30;;;;;;5073011;28;20486;-78
2021/06/05 04:32:26;;;;;;;34.47;21.00;;;18.50;92.30;;;;;;5072287;28;20199;-78
2021/06/05 04:34:52;;;;;;;33.63;20.77;;;18.50;92.30;;;;;;5073878;28;20186;-76
2021/06/05 04:37:17;;;;;;;33.10;19.70;;;18.50;92.30;;;;;;5093669;28;20724;-76
2021/06/05 04:39:43;;;;;;;35.70;20.50;;;18.60;92.20;;;;;;5092858;28;20172;-78
2021/06/05 04:42:09;;;;;;;32.63;19.10;;;18.60;92.00;;;;;;5095750;28;20190;-78
2021/06/05 04:44:35;;;;;;;33.93;20.40;;;18.60;91.90;;;;;;5101589;28;20241;-76
2021/06/05 04:47:01;;;;;;;30.10;20.50;;;18.60;91.90;;;;;;5102460;28;20636;-77
2021/06/05 04:49:27;;;;;;;30.40;19.00;;;18.60;91.90;;;;;;5088221;28;20505;-76
2021/06/05 04:51:53;;;;;;;31.23;20.33;;;18.70;91.80;;;;;;5071915;28;20176;-75
2021/06/05 04:54:18;;;;;;;37.17;19.73;;;18.70;91.80;;;;;;5075266;28;20448;-78
2021/06/05 04:56:49;;;;;;;30.30;19.97;;;18.70;91.70;;;;;;5074364;28;20192;-77
2021/06/05 04:59:16;;;;;;;34.37;20.90;;;18.70;91.50;;;;;;5067927;28;20202;-77
2021/06/05 05:01:42;;;;;;;32.57;18.30;;;18.60;91.70;;;;;;5092507;28;20813;-76
2021/06/05 05:04:08;;;;;;;29.30;19.27;;;18.60;91.60;;;;;;5072928;28;20443;-75
2021/06/05 05:06:35;;;;;;;33.33;20.70;;;18.60;91.70;;;;;;5096039;28;20227;-76
2021/06/05 05:09:01;;;;;;;29.00;17.63;;;18.60;91.60;;;;;;5098727;28;20450;-77
2021/06/05 05:11:27;;;;;;;33.10;18.60;;;18.60;91.60;;;;;;5091414;28;21026;-77
2021/06/05 05:13:52;;;;;;;30.77;18.80;;;18.60;91.60;;;;;;5102851;28;20456;-77
2021/06/05 05:16:19;;;;;;;37.27;20.80;;;18.60;91.60;;;;;;5093970;28;20165;-78
2021/06/05 05:18:47;;;;;;;36.07;20.97;;;18.60;91.60;;;;;;5096243;28;20476;-76
2021/06/05 05:21:15;;;;;;;37.10;21.17;;;18.70;91.60;;;;;;5097380;28;20406;-77
2021/06/05 05:23:42;;;;;;;33.20;21.30;;;18.70;91.40;;;;;;5097399;28;20720;-78
2021/06/05 05:26:09;;;;;;;31.70;19.30;;;18.80;91.20;;;;;;5096384;28;20790;-77
2021/06/05 05:28:36;;;;;;;31.33;18.90;;;18.80;91.10;;;;;;5098380;28;20552;-76
2021/06/05 05:31:06;;;;;;;30.37;19.57;;;18.90;91.00;;;;;;5112159;28;20828;-77
2021/06/05 05:33:37;;;;;;;35.10;19.27;;;19.00;90.90;;;;;;5099624;28;20422;-78
2021/06/05 05:36:12;;;;;;;26.83;18.00;;;19.00;90.60;;;;;;5079583;28;20442;-77
2021/06/05 05:38:38;;;;;;;39.57;20.70;;;19.10;90.50;;;;;;5096445;28;20446;-76
2021/06/05 05:41:08;;;;;;;31.87;21.47;;;19.10;90.40;;;;;;5076673;28;20411;-77
2021/06/05 05:43:34;;;;;;;33.90;20.20;;;19.10;90.20;;;;;;5076096;28;20407;-75
2021/06/05 05:46:00;;;;;;;26.40;18.37;;;19.20;90.10;;;;;;5089946;28;20469;-75
2021/06/05 05:48:26;;;;;;;34.37;19.60;;;19.20;90.10;;;;;;5099986;28;20218;-77
2021/06/05 05:50:52;;;;;;;30.43;18.67;;;19.30;89.90;;;;;;5102433;28;20198;-78
2021/06/05 05:53:18;;;;;;;41.23;19.03;;;19.30;89.60;;;;;;5098771;28;20418;-78
2021/06/05 05:55:44;;;;;;;28.60;17.70;;;19.30;89.70;;;;;;5099580;28;20219;-79
2021/06/05 05:58:17;;;;;;;36.03;20.00;;;19.30;89.70;;;;;;5091489;28;20924;-78
2021/06/05 06:00:46;;;;;;;30.90;19.70;;;19.40;90.00;;;;;;5080578;28;20425;-76
2021/06/05 06:03:13;;;;;;;29.40;18.47;;;19.40;89.90;;;;;;5078742;28;20404;-75
2021/06/05 06:05:39;;;;;;;30.13;18.90;;;19.40;89.50;;;;;;5076963;28;20862;-77
2021/06/05 06:08:06;;;;;;;33.00;19.37;;;19.40;89.10;;;;;;5076468;28;20508;-74
2021/06/05 06:10:33;;;;;;;31.50;19.17;;;19.50;88.90;;;;;;5076064;28;20240;-75
2021/06/05 06:12:58;;;;;;;36.87;21.47;;;19.50;88.40;;;;;;5093663;28;20402;-76
2021/06/05 06:15:26;;;;;;;24.43;16.83;;;19.50;88.50;;;;;;5099134;28;20443;-76
2021/06/05 06:17:53;;;;;;;30.03;17.60;;;19.40;88.50;;;;;;5094719;28;20791;-76
2021/06/05 06:20:31;;;;;;;26.57;16.27;;;19.50;88.50;;;;;;5078036;28;20431;-75
2021/06/05 06:22:57;;;;;;;27.93;17.43;;;19.50;88.40;;;;;;5096704;28;20460;-77
2021/06/05 06:25:27;;;;;;;24.93;15.97;;;19.50;88.00;;;;;;5097374;28;20462;-77
2021/06/05 06:27:54;;;;;;;21.93;14.90;;;19.60;87.60;;;;;;5095320;28;20454;-75
2021/06/05 06:30:27;;;;;;;23.80;15.80;;;19.60;88.00;;;;;;5099160;28;20920;-76
2021/06/05 06:32:53;;;;;;;29.43;16.70;;;19.50;87.50;;;;;;5089991;28;20430;-78
2021/06/05 06:35:28;;;;;;;25.47;16.93;;;19.50;87.90;;;;;;5078121;28;20464;-77
2021/06/05 06:37:54;;;;;;;30.27;17.37;;;19.60;87.60;;;;;;5076732;28;20230;-75
2021/06/05 06:40:24;;;;;;;27.50;17.73;;;19.50;87.70;;;;;;5095336;28;20515;-77
2021/06/05 06:42:50;;;;;;;28.83;17.83;;;19.50;87.60;;;;;;5078912;28;20418;-76
2021/06/05 06:45:16;;;;;;;28.57;17.90;;;19.50;88.30;;;;;;5098224;28;20440;-77
2021/06/05 06:47:43;;;;;;;31.20;17.17;;;19.50;88.00;;;;;;5095853;28;20179;-76
2021/06/05 06:50:13;;;;;;;28.90;19.07;;;19.60;88.30;;;;;;5095912;28;20811;-75
2021/06/05 06:52:39;;;;;;;26.70;15.90;;;19.60;87.30;;;;;;5095281;28;20407;-77
2021/06/05 06:55:06;;;;;;;28.77;18.40;;;19.60;88.00;;;;;;5098411;28;20445;-78
2021/06/05 06:57:32;;;;;;;28.07;17.87;;;19.70;86.70;;;;;;5099516;28;20187;-75
2021/06/05 06:59:58;;;;;;;31.47;18.20;;;19.80;86.70;;;;;;5108033;28;20420;-74
2021/06/05 07:02:24;;;;;;;30.13;17.87;;;19.90;86.20;;;;;;5115839;28;20537;-77
2021/06/05 07:04:53;;;;;;;26.87;19.37;;;20.00;85.40;;;;;;5094163;28;20202;-77
2021/06/05 07:07:19;;;;;;;25.10;17.13;;;20.20;84.80;;;;;;5080796;28;20177;-76
2021/06/05 07:09:45;;;;;;;29.07;19.00;;;20.30;84.40;;;;;;5078533;28;20484;-76
2021/06/05 07:12:13;;;;;;;30.27;19.33;;;20.50;82.80;;;;;;5082899;28;20187;-77
2021/06/05 07:14:41;;;;;;;32.13;17.90;;;20.60;82.30;;;;;;5078931;28;20211;-76
2021/06/05 07:17:08;;;;;;;30.33;18.13;;;20.90;81.10;;;;;;5098333;28;20921;-77
2021/06/05 07:19:34;;;;;;;27.07;18.40;;;21.20;80.70;;;;;;5099441;28;20405;-76
2021/06/05 07:22:01;;;;;;;29.23;18.70;;;21.60;78.80;;;;;;5097567;28;20506;-78
2021/06/05 07:24:27;;;;;;;29.60;18.63;;;21.80;76.40;;;;;;5097210;28;20183;-77
2021/06/05 07:26:53;;;;;;;29.73;20.37;;;21.80;76.20;;;;;;5081890;28;20439;-76
2021/06/05 07:29:19;;;;;;;30.77;18.40;;;21.80;75.60;;;;;;5096027;28;20462;-79
2021/06/05 07:31:50;;;;;;;28.90;18.50;;;21.70;76.10;;;;;;5099710;28;20163;-79
2021/06/05 07:34:25;;;;;;;29.00;17.67;;;21.70;76.40;;;;;;5087834;28;20233;-74
2021/06/05 07:36:54;;;;;;;30.30;17.80;;;21.70;76.60;;;;;;5091602;28;20410;-75
2021/06/05 07:39:25;;;;;;;31.00;17.93;;;21.70;76.70;;;;;;5093356;28;20483;-77
2021/06/05 07:41:52;;;;;;;25.07;17.27;;;21.70;76.20;;;;;;5095727;28;20777;-73
2021/06/05 07:44:20;;;;;;;23.60;16.77;;;21.70;76.40;;;;;;5105778;28;20443;-72
2021/06/05 07:46:48;;;;;;;31.77;17.97;;;21.60;77.40;;;;;;5094063;28;20525;-76
2021/06/05 07:49:15;;;;;;;29.13;17.97;;;21.60;76.50;;;;;;5091445;28;20572;-75
2021/06/05 07:51:41;;;;;;;25.87;16.63;;;21.60;76.60;;;;;;5109167;28;20415;-75
2021/06/05 07:54:10;;;;;;;23.30;14.20;;;21.70;76.20;;;;;;5091913;28;20543;-75
2021/06/05 07:56:36;;;;;;;22.90;15.07;;;21.80;76.30;;;;;;5096749;28;20463;-74
2021/06/05 07:59:03;;;;;;;29.37;18.90;;;22.00;75.30;;;;;;5088125;28;20923;-74
2021/06/05 08:01:30;;;;;;;27.57;15.10;;;22.10;74.60;;;;;;5093090;28;20406;-75
2021/06/05 08:03:56;;;;;;;21.63;14.67;;;22.20;74.70;;;;;;5090169;28;20509;-73
2021/06/05 08:06:22;;;;;;;26.80;16.70;;;22.00;74.20;;;;;;5095051;28;20413;-76
2021/06/05 08:08:48;;;;;;;22.57;16.50;;;22.00;74.50;;;;;;5091567;28;20490;-72
2021/06/05 08:11:16;;;;;;;26.10;17.80;;;21.90;75.10;;;;;;5082018;28;20494;-76
2021/06/05 08:13:41;;;;;;;24.47;15.63;;;21.90;74.80;;;;;;5067931;28;20423;-71
2021/06/05 08:16:07;;;;;;;21.80;16.00;;;21.90;75.30;;;;;;5071266;28;20459;-76
2021/06/05 08:18:35;;;;;;;22.10;15.97;;;21.80;75.30;;;;;;5062645;28;20506;-72
2021/06/05 08:21:07;;;;;;;24.13;15.60;;;21.80;76.40;;;;;;5092142;28;20173;-72
2021/06/05 08:23:35;;;;;;;23.00;15.43;;;21.80;75.00;;;;;;5092120;28;20433;-71
2021/06/05 08:26:03;;;;;;;24.43;18.30;;;21.80;76.20;;;;;;5092124;28;20434;-72
2021/06/05 08:28:29;;;;;;;22.33;16.37;;;21.90;75.90;;;;;;5092974;28;20442;-71
2021/06/05 08:30:59;;;;;;;24.93;15.67;;;22.00;75.10;;;;;;5089931;28;20542;-70
2021/06/05 08:33:25;;;;;;;23.17;16.17;;;22.20;74.70;;;;;;5091133;28;20171;-69
2021/06/05 08:35:51;;;;;;;22.20;16.80;;;22.30;73.90;;;;;;5091537;28;20990;-70
2021/06/05 08:38:21;;;;;;;21.00;15.53;;;22.40;73.70;;;;;;5090850;28;20215;-70
2021/06/05 08:41:10;;;;;;;25.97;17.87;;;22.40;73.50;;;;;;5090623;28;20176;-70
2021/06/05 08:44:07;;;;;;;27.10;15.70;;;22.50;72.50;;;;;;5090730;28;20410;-70
2021/06/05 08:46:40;;;;;;;20.57;15.33;;;22.50;72.50;;;;;;5074717;28;20460;-72
2021/06/05 08:49:14;;;;;;;23.77;16.17;;;22.50;73.60;;;;;;5090072;28;20466;-70
2021/06/05 08:51:46;;;;;;;22.70;16.37;;;22.60;72.30;;;;;;5091288;28;20402;-70
2021/06/05 08:54:32;;;;;;;21.57;15.13;;;22.80;71.80;;;;;;5090567;28;20445;-71
2021/06/05 08:57:14;;;;;;;19.83;13.83;;;22.90;71.20;;;;;;5090688;28;20402;-70
2021/06/05 08:59:43;;;;;;;23.80;15.37;;;22.90;71.00;;;;;;5090023;28;20433;-69
2021/06/05 09:02:10;;;;;;;20.17;15.30;;;22.80;70.50;;;;;;5091164;28;20415;-75
2021/06/05 09:04:38;;;;;;;19.93;15.80;;;22.70;71.30;;;;;;5091146;28;20426;-75
2021/06/05 09:07:13;;;;;;;21.80;15.97;;;22.50;72.40;;;;;;5091913;28;20444;-77
2021/06/05 09:09:45;;;;;;;25.90;15.97;;;22.40;72.30;;;;;;5089641;28;20445;-75
2021/06/05 09:12:13;;;;;;;25.17;17.03;;;22.20;72.90;;;;;;5071441;28;20439;-76
2021/06/05 09:14:39;;;;;;;25.67;16.70;;;22.10;73.50;;;;;;5083612;28;20438;-74
2021/06/05 09:17:18;;;;;;;25.87;16.60;;;21.90;74.10;;;;;;5076487;28;20424;-77
2021/06/05 09:20:21;;;;;;;26.60;17.40;;;21.80;75.10;;;;;;5099131;28;20271;-74
2021/06/05 09:22:47;;;;;;;24.57;16.90;;;21.60;76.00;;;;;;5080809;28;20417;-75
2021/06/05 09:25:38;;;;;;;24.57;18.23;;;21.40;77.00;;;;;;5094932;28;20470;-78
2021/06/05 09:28:32;;;;;;;23.10;17.23;;;21.30;78.00;;;;;;5075526;28;20199;-77
2021/06/05 09:31:22;;;;;;;25.07;16.17;;;21.20;80.00;;;;;;5073363;28;20437;-78
2021/06/05 09:33:48;;;;;;;23.37;16.87;;;21.10;81.30;;;;;;5072605;28;20410;-77
2021/06/05 09:36:19;;;;;;;29.77;18.43;;;21.00;82.40;;;;;;5072566;28;20403;-75
2021/06/05 09:38:49;;;;;;;29.97;21.10;;;20.90;83.10;;;;;;5073736;28;20410;-76
2021/06/05 09:41:25;;;;;;;29.40;18.53;;;20.90;83.90;;;;;;5074055;28;20932;-77
2021/06/05 09:43:53;;;;;;;33.73;20.60;;;20.80;84.40;;;;;;5072999;28;20406;-76
2021/06/05 09:46:26;;;;;;;32.07;20.23;;;20.80;84.90;;;;;;5071288;28;20950;-77
2021/06/05 09:49:19;;;;;;;33.67;19.90;;;20.80;85.20;;;;;;5072125;28;20457;-74
2021/06/05 09:52:08;;;;;;;30.20;19.20;;;20.80;85.40;;;;;;5073233;28;20397;-77
2021/06/05 09:54:45;;;;;;;43.60;27.77;;;20.90;85.40;;;;;;5070579;28;20610;-75
2021/06/05 09:57:19;;;;;;;31.43;21.20;;;21.00;85.60;;;;;;5076929;28;20401;-77
2021/06/05 10:00:05;;;;;;;34.50;22.73;;;21.00;85.70;;;;;;5073874;28;20413;-77
2021/06/05 10:02:48;;;;;;;36.83;20.90;;;21.00;85.30;;;;;;5077997;28;20395;-77
2021/06/05 10:05:23;;;;;;;42.23;23.50;;;21.00;85.70;;;;;;5077175;28;20421;-77
2021/06/05 10:07:54;;;;;;;38.10;22.83;;;21.00;85.80;;;;;;5079688;28;20433;-76
2021/06/05 10:10:23;;;;;;;31.40;20.30;;;21.00;85.60;;;;;;5078017;28;20443;-78
2021/06/05 10:12:50;;;;;;;39.97;21.63;;;21.00;85.80;;;;;;5075554;28;20411;-77
2021/06/05 10:15:21;;;;;;;31.73;21.20;;;21.10;85.30;;;;;;5075710;28;20417;-78
2021/06/05 10:17:57;;;;;;;32.33;20.17;;;21.10;85.40;;;;;;5059485;28;20415;-76
2021/06/05 10:20:48;;;;;;;33.77;21.47;;;21.10;85.30;;;;;;5076950;28;20740;-76
2021/06/05 10:23:23;;;;;;;39.67;24.13;;;21.20;84.90;;;;;;5088960;28;20925;-77
2021/06/05 10:25:55;;;;;;;30.07;22.00;;;21.30;84.40;;;;;;5074043;28;20541;-76
2021/06/05 10:28:25;;;;;;;34.83;21.20;;;21.40;84.10;;;;;;5076233;28;20538;-77
2021/06/05 10:31:10;;;;;;;31.07;19.53;;;21.40;83.70;;;;;;5076595;28;20411;-77
2021/06/05 10:33:52;;;;;;;36.93;21.63;;;21.50;84.00;;;;;;5091253;28;20414;-77
2021/06/05 10:36:39;;;;;;;33.63;21.80;;;21.60;83.70;;;;;;5074847;28;20437;-77
2021/06/05 10:39:13;;;;;;;31.20;18.80;;;21.70;82.60;;;;;;5076819;28;20535;-75
2021/06/05 10:41:49;;;;;;;30.67;21.03;;;21.70;82.10;;;;;;5077067;28;20403;-79
2021/06/05 10:44:15;;;;;;;30.90;19.87;;;21.80;81.80;;;;;;5074412;28;20439;-75
2021/06/05 10:47:14;;;;;;;29.33;19.87;;;22.00;81.50;;;;;;5076180;28;20403;-76
2021/06/05 10:49:42;;;;;;;28.90;18.77;;;22.10;81.30;;;;;;5077782;28;20477;-77
2021/06/05 10:52:34;;;;;;;35.90;21.10;;;22.20;80.60;;;;;;5079418;28;20464;-78
2021/06/05 10:55:15;;;;;;;26.90;17.67;;;22.30;79.00;;;;;;5069681;28;20455;-77
2021/06/05 10:57:49;;;;;;;29.23;18.60;;;22.40;79.00;;;;;;5078542;28;20415;-77
2021/06/05 11:00:48;;;;;;;41.50;22.17;;;22.50;78.40;;;;;;5081739;28;20915;-77
2021/06/05 11:03:23;;;;;;;34.00;20.37;;;22.70;76.90;;;;;;5074729;28;20403;-75
2021/06/05 11:06:02;;;;;;;30.83;19.13;;;23.00;76.20;;;;;;5077981;28;20426;-77
2021/06/05 11:08:38;;;;;;;42.47;22.43;;;23.30;76.20;;;;;;5078614;28;20443;-77
2021/06/05 11:11:06;;;;;;;48.43;24.60;;;23.50;73.20;;;;;;5077747;28;20407;-77
2021/06/05 11:13:35;;;;;;;39.80;21.73;;;23.80;72.90;;;;;;5073160;28;20407;-77
2021/06/05 11:16:09;;;;;;;41.50;20.57;;;24.00;72.10;;;;;;5076947;28;20434;-78
2021/06/05 11:18:41;;;;;;;42.33;22.23;;;24.20;70.70;;;;;;5077355;28;20407;-78
2021/06/05 11:21:22;;;;;;;34.00;19.83;;;24.60;68.60;;;;;;5079744;28;20454;-74
2021/06/05 11:23:56;;;;;;;40.90;21.10;;;24.80;68.10;;;;;;5081778;28;20422;-77
2021/06/05 11:26:37;;;;;;;41.83;22.03;;;25.00;67.00;;;;;;5080258;28;20442;-78
2021/06/05 11:29:14;;;;;;;28.40;16.93;;;25.20;65.30;;;;;;5058380;28;20462;-78
2021/06/05 11:31:49;;;;;;;41.70;24.30;;;25.40;64.70;;;;;;5077004;28;20453;-77
2021/06/05 11:34:36;;;;;;;32.30;20.40;;;25.60;63.20;;;;;;5074298;28;20792;-76
2021/06/05 11:37:15;;;;;;;29.47;19.67;;;25.60;62.10;;;;;;5075307;28;20506;-76
2021/06/05 11:39:59;;;;;;;36.90;22.70;;;25.60;61.70;;;;;;5078030;28;20916;-76
2021/06/05 11:42:24;;;;;;;34.80;19.73;;;25.40;63.20;;;;;;5075314;28;20407;-74
2021/06/05 11:45:10;;;;;;;31.00;21.60;;;25.30;62.90;;;;;;5074690;28;20435;-79
2021/06/05 11:47:43;;;;;;;37.80;23.33;;;25.30;62.90;;;;;;5073438;28;20179;-78
2021/06/05 11:50:10;;;;;;;39.33;25.17;;;25.20;62.20;;;;;;5075024;28;20415;-77
2021/06/05 11:52:43;;;;;;;32.23;20.47;;;25.20;62.30;;;;;;5074865;28;20829;-77
2021/06/05 11:55:14;;;;;;;33.97;22.87;;;25.10;62.70;;;;;;5074508;28;20459;-77
2021/06/05 11:57:53;;;;;;;37.80;23.57;;;25.10;62.70;;;;;;5075675;28;20823;-77
2021/06/05 12:00:26;;;;;;;36.30;21.70;;;25.30;62.30;;;;;;5059481;28;20415;-77
2021/06/05 12:03:33;;;;;;;35.30;22.80;;;25.40;61.50;;;;;;5079522;28;20461;-77
2021/06/05 12:06:13;;;;;;;40.57;27.50;;;25.50;60.60;;;;;;5053634;28;20435;-76
2021/06/05 12:08:39;;;;;;;39.80;24.13;;;25.40;60.20;;;;;;5078712;28;20455;-76
2021/06/05 12:11:19;;;;;;;27.77;19.80;;;25.30;60.40;;;;;;5076944;28;20411;-78
2021/06/05 12:13:45;;;;;;;37.23;23.13;;;25.20;60.80;;;;;;5074083;28;20876;-77
2021/06/05 12:16:21;;;;;;;32.73;20.83;;;25.20;61.20;;;;;;5078560;28;20439;-77
2021/06/05 12:18:49;;;;;;;38.13;25.10;;;25.10;61.20;;;;;;5074157;28;20651;-78
2021/06/05 12:21:28;;;;;;;40.63;25.07;;;25.10;61.10;;;;;;5076693;28;20447;-76
2021/06/05 12:23:55;;;;;;;38.30;25.50;;;25.00;61.00;;;;;;5077750;28;20625;-76
2021/06/05 12:26:24;;;;;;;40.90;26.93;;;25.00;61.50;;;;;;5057978;28;20419;-79
2021/06/05 12:29:12;;;;;;;37.33;25.20;;;24.90;61.80;;;;;;5060477;28;20451;-77
2021/06/05 12:31:42;;;;;;;42.60;27.87;;;24.90;61.30;;;;;;5074661;28;20558;-78
2021/06/05 12:34:25;;;;;;;47.57;28.53;;;25.10;61.10;;;;;;5075462;28;20439;-77
2021/06/05 12:36:56;;;;;;;39.17;23.60;;;25.10;60.40;;;;;;5074704;28;20411;-78
2021/06/05 12:39:42;;;;;;;37.57;26.30;;;25.00;60.70;;;;;;5075157;28;21004;-80
2021/06/05 12:42:09;;;;;;;48.97;26.83;;;25.10;60.30;;;;;;5075071;28;20426;-78
2021/06/05 12:44:37;;;;;;;46.00;27.00;;;25.20;60.40;;;;;;5074678;28;20459;-78
2021/06/05 12:47:11;;;;;;;48.10;30.30;;;25.20;60.10;;;;;;5055216;28;20835;-76
2021/06/05 12:49:42;;;;;;;57.60;33.27;;;25.10;60.10;;;;;;5074579;28;20971;-74
2021/06/05 12:52:17;;;;;;;59.97;36.13;;;25.10;59.90;;;;;;5073813;28;20419;-75